Time;durP1;ratioP1;P1;durP2;ratioP2;P2;SDS_P1;SDS_P2;PMS_P1;PMS_P2;Temp;Humidity;BMP_temperature;BMP_pressure;BME280_temperature;BME280_humidity;BME280_pressure;Samples;Min_cycle;Max_cycle;Signal;HPM_P1;HPM_P2
2021/09/16 00:01:05;;;;;;;36.87;12.17;;;;;;;6.96;63.12;100871.13;1720388;82;21260;-60
2021/09/16 00:03:42;;;;;;;42.83;12.88;;;;;;;6.98;63.17;100879.66;1746496;81;21707;-61
2021/09/16 00:06:19;;;;;;;47.55;14.60;;;;;;;6.97;63.44;100876.71;1746799;82;21267;-60
2021/09/16 00:08:53;;;;;;;54.53;15.72;;;;;;;6.98;63.63;100879.66;1748958;81;21191;-60
2021/09/16 00:11:26;;;;;;;66.02;19.82;;;;;;;6.96;63.62;100878.93;1746321;81;21283;-60
2021/09/16 00:14:00;;;;;;;59.13;18.20;;;;;;;6.95;63.61;100882.45;1741442;81;21346;-60
2021/09/16 00:16:41;;;;;;;56.73;15.80;;;;;;;6.90;63.52;100878.50;1734983;81;21153;-60
2021/09/16 00:19:16;;;;;;;37.45;12.00;;;;;;;6.83;63.58;100879.81;1740516;81;21156;-59
2021/09/16 00:21:50;;;;;;;35.05;12.10;;;;;;;6.77;63.58;100883.17;1746384;82;21295;-60
2021/09/16 00:24:25;;;;;;;48.50;11.53;;;;;;;6.71;63.61;100887.94;1739731;81;21272;-61
2021/09/16 00:27:03;;;;;;;33.30;11.33;;;;;;;6.61;63.67;100888.98;1735776;82;21787;-60
2021/09/16 00:29:36;;;;;;;37.63;12.07;;;;;;;6.57;63.86;100890.53;1735774;81;21149;-60
2021/09/16 00:32:10;;;;;;;32.35;11.65;;;;;;;6.52;63.99;100892.61;1735497;82;21311;-60
2021/09/16 00:34:46;;;;;;;30.12;10.90;;;;;;;6.49;64.19;100891.49;1762501;81;21811;-60
2021/09/16 00:37:24;;;;;;;33.83;11.97;;;;;;;6.44;64.28;100893.54;1771860;81;21122;-61
2021/09/16 00:40:00;;;;;;;36.83;10.78;;;;;;;6.41;64.31;100887.22;1772450;81;21257;-61
2021/09/16 00:42:33;;;;;;;31.90;11.50;;;;;;;6.37;64.38;100893.55;1771776;81;21142;-61
2021/09/16 00:45:08;;;;;;;28.27;10.50;;;;;;;6.33;64.48;100890.28;1772219;81;21268;-60
2021/09/16 00:47:48;;;;;;;28.23;11.30;;;;;;;6.30;64.53;100898.29;1760509;81;21192;-60
2021/09/16 00:50:23;;;;;;;33.95;10.53;;;;;;;6.27;64.58;100893.27;1771527;81;21288;-60
2021/09/16 00:52:58;;;;;;;35.33;10.60;;;;;;;6.25;64.59;100903.39;1771969;81;21265;-60
2021/09/16 00:55:32;;;;;;;45.23;10.32;;;;;;;6.21;64.63;100899.31;1741088;82;21410;-60
2021/09/16 00:58:09;;;;;;;43.05;10.80;;;;;;;6.19;64.75;100898.09;1740919;81;21193;-61
2021/09/16 01:00:45;;;;;;;29.72;11.57;;;;;;;6.19;64.62;100905.05;1735679;82;21188;-60
2021/09/16 01:03:19;;;;;;;31.10;10.60;;;;;;;6.18;64.52;100903.39;1734749;81;21144;-61
2021/09/16 01:05:56;;;;;;;41.37;11.18;;;;;;;6.15;64.46;100906.16;1735403;81;21843;-61
2021/09/16 01:08:34;;;;;;;31.25;10.50;;;;;;;6.11;64.38;100905.53;1723024;81;21728;-61
2021/09/16 01:11:14;;;;;;;42.27;12.15;;;;;;;6.07;64.34;100910.06;1771331;80;21166;-62
2021/09/16 01:13:56;;;;;;;35.45;11.53;;;;;;;6.06;64.37;100916.66;1772091;81;21316;-61
2021/09/16 01:16:31;;;;;;;39.08;11.08;;;;;;;6.03;64.44;100915.08;1771494;80;21118;-61
2021/09/16 01:19:13;;;;;;;29.95;10.70;;;;;;;6.04;64.43;100918.03;1771089;80;21200;-61
2021/09/16 01:21:49;;;;;;;30.68;10.95;;;;;;;6.04;64.44;100923.23;1771526;80;21145;-61
2021/09/16 01:24:24;;;;;;;36.68;12.50;;;;;;;6.03;64.52;100920.28;1771865;81;21307;-61
2021/09/16 01:27:00;;;;;;;41.23;12.98;;;;;;;6.02;64.55;100921.20;1760470;81;21145;-61
2021/09/16 01:29:39;;;;;;;40.52;10.88;;;;;;;6.02;64.74;100921.20;1771038;80;21145;-61
2021/09/16 01:32:15;;;;;;;46.20;13.62;;;;;;;6.01;64.95;100919.54;1772218;81;21812;-61
2021/09/16 01:34:51;;;;;;;37.00;13.93;;;;;;;5.99;65.07;100920.55;1772324;80;21323;-61
2021/09/16 01:37:26;;;;;;;40.12;13.50;;;;;;;5.97;65.31;100924.52;1771453;79;21747;-61
2021/09/16 01:40:09;;;;;;;43.40;14.75;;;;;;;5.96;65.58;100925.92;1772479;81;21319;-61
2021/09/16 01:42:45;;;;;;;49.85;15.78;;;;;;;5.94;65.91;100922.13;1772645;81;21193;-61
2021/09/16 01:45:23;;;;;;;52.85;16.30;;;;;;;5.92;66.20;100919.25;1772082;79;21284;-61
2021/09/16 01:48:00;;;;;;;52.27;16.75;;;;;;;5.88;66.41;100921.17;1794546;79;21181;-62
2021/09/16 01:50:36;;;;;;;52.83;15.38;;;;;;;5.85;66.42;100930.44;1712319;81;21851;-61
2021/09/16 01:53:10;;;;;;;37.42;14.23;;;;;;;5.81;66.35;100935.88;1740376;81;21134;-61
2021/09/16 01:55:46;;;;;;;;;;;;;;;5.76;66.23;100928.81;1737632;81;21196;-61
2021/09/16 01:58:19;;;;;;;40.98;12.60;;;;;;;5.72;66.12;100928.63;1736696;81;20304;-61
2021/09/16 02:00:53;;;;;;;38.53;11.68;;;;;;;5.66;66.12;100926.39;1745926;82;21188;-61
2021/09/16 02:03:33;;;;;;;27.85;11.68;;;;;;;5.63;66.05;100927.86;1746109;81;21264;-61
2021/09/16 02:06:15;;;;;;;31.97;12.23;;;;;;;5.61;66.00;100932.31;1745841;81;21282;-61
2021/09/16 02:08:48;;;;;;;30.77;11.80;;;;;;;5.57;66.04;100933.39;1742998;81;21261;-61
2021/09/16 02:11:27;;;;;;;39.98;13.10;;;;;;;5.54;66.10;100941.38;1735028;82;21819;-61
2021/09/16 02:14:01;;;;;;;29.32;11.75;;;;;;;5.52;66.24;100945.34;1748360;81;22425;-60
2021/09/16 02:16:40;;;;;;;33.45;11.48;;;;;;;5.52;66.37;100945.83;1748693;82;21252;-60
2021/09/16 02:19:17;;;;;;;41.48;10.90;;;;;;;5.51;66.52;100940.25;1748539;81;21730;-60
2021/09/16 02:21:56;;;;;;;29.40;10.43;;;;;;;5.49;66.64;100936.45;1748632;80;22119;-61
2021/09/16 02:24:29;;;;;;;31.93;9.93;;;;;;;5.49;66.68;100933.02;1748969;81;21264;-61
2021/09/16 02:27:04;;;;;;;24.63;11.25;;;;;;;5.49;66.79;100939.05;1748865;81;21362;-61
2021/09/16 02:29:38;;;;;;;35.43;11.33;;;;;;;5.51;66.75;100944.14;1749527;81;21248;-61
2021/09/16 02:32:16;;;;;;;30.32;11.53;;;;;;;5.50;66.83;100947.66;1749138;82;21771;-61
2021/09/16 02:34:54;;;;;;;30.92;11.18;;;;;;;5.49;66.88;100950.73;1749073;81;21334;-59
2021/09/16 02:37:30;;;;;;;31.90;10.73;;;;;;;5.47;66.83;100953.85;1748947;81;21255;-60
2021/09/16 02:40:09;;;;;;;33.23;9.88;;;;;;;5.46;66.77;100952.20;1748812;81;21172;-60
2021/09/16 02:42:49;;;;;;;29.40;10.65;;;;;;;5.40;66.70;100956.42;1748230;81;21188;-60
2021/09/16 02:45:27;;;;;;;30.77;11.15;;;;;;;5.34;66.69;100960.67;1748984;81;21299;-60
2021/09/16 02:48:02;;;;;;;36.55;11.85;;;;;;;5.32;66.78;100958.18;1749498;80;21200;-60
2021/09/16 02:50:39;;;;;;;35.75;12.37;;;;;;;5.31;66.79;100951.75;1749130;80;21386;-60
2021/09/16 02:53:13;;;;;;;37.70;12.10;;;;;;;5.30;66.70;100956.10;1748724;81;21196;-60
2021/09/16 02:55:49;;;;;;;39.75;10.63;;;;;;;5.30;66.73;100956.59;1752148;81;21287;-60
2021/09/16 02:58:22;;;;;;;37.90;10.18;;;;;;;5.30;66.65;100957.88;1751149;80;21271;-61
2021/09/16 03:00:58;;;;;;;33.75;9.83;;;;;;;5.28;66.39;100953.21;1751599;82;21172;-61
2021/09/16 03:03:36;;;;;;;26.40;9.15;;;;;;;5.26;66.21;100953.77;1750547;81;21263;-61
2021/09/16 03:06:10;;;;;;;28.40;10.00;;;;;;;5.20;66.04;100945.87;1749389;82;21168;-61
2021/09/16 03:08:48;;;;;;;26.90;8.78;;;;;;;5.17;65.91;100944.74;1748206;81;21619;-61
2021/09/16 03:11:22;;;;;;;37.83;9.40;;;;;;;5.18;65.75;100958.08;1748818;81;21145;-61
2021/09/16 03:13:55;;;;;;;;;;;;;;;5.19;65.61;100965.41;1750998;81;21153;-61
2021/09/16 03:16:32;;;;;;;27.40;8.20;;;;;;;5.20;65.52;100968.40;1748386;82;20316;-61
2021/09/16 03:19:08;;;;;;;31.62;9.63;;;;;;;5.21;65.63;100964.86;1748986;81;21278;-61
2021/09/16 03:21:44;;;;;;;39.13;13.72;;;;;;;5.29;65.42;100964.83;1748559;81;21196;-61
2021/09/16 03:24:20;;;;;;;141.43;53.35;;;;;;;5.37;65.13;100969.11;1748495;81;21136;-61
2021/09/16 03:26:58;;;;;;;310.95;120.22;;;;;;;5.45;64.97;100966.94;1749640;82;21220;-58
2021/09/16 03:29:32;;;;;;;478.00;195.45;;;;;;;5.55;64.84;100970.30;1748810;81;21331;-61
2021/09/16 03:32:10;;;;;;;312.08;125.42;;;;;;;5.63;64.63;100967.67;1749286;82;21294;-60
2021/09/16 03:34:45;;;;;;;214.60;83.78;;;;;;;5.73;64.32;100977.07;1750921;80;21770;-61
2021/09/16 03:37:19;;;;;;;112.60;46.20;;;;;;;5.79;63.76;100981.45;1751371;80;21168;-59
2021/09/16 03:39:53;;;;;;;;;;;;;;;5.85;63.44;100990.20;1751621;81;21192;-59
2021/09/16 03:42:32;;;;;;;63.05;25.50;;;;;;;5.97;63.32;100992.09;1749052;82;20236;-59
2021/09/16 03:45:06;;;;;;;61.50;26.27;;;;;;;6.16;63.07;100994.94;1748957;81;21196;-59
2021/09/16 03:47:42;;;;;;;59.67;23.67;;;;;;;6.28;62.87;100993.73;1749005;80;21208;-60
2021/09/16 03:50:15;;;;;;;;;;;;;;;6.38;62.65;100991.42;1751045;81;21727;-59
2021/09/16 03:52:48;;;;;;;34.65;9.30;;;;;;;6.55;62.58;100986.89;1749318;82;20236;-60
2021/09/16 03:55:24;;;;;;;30.65;8.48;;;;;;;6.75;62.35;100993.49;1748751;81;21263;-60
2021/09/16 03:57:59;;;;;;;26.70;7.53;;;;;;;6.98;61.87;100998.56;1748611;81;21164;-60
2021/09/16 04:00:32;;;;;;;17.42;7.85;;;;;;;7.21;61.22;101000.09;1748828;80;21323;-60
2021/09/16 04:03:12;;;;;;;16.85;6.80;;;;;;;7.41;60.61;100994.47;1749138;81;21287;-60
2021/09/16 04:05:50;;;;;;;57.48;20.45;;;;;;;7.72;60.16;100995.09;1751989;80;21332;-60
2021/09/16 04:08:25;;;;;;;49.33;18.77;;;;;;;8.42;59.57;100995.19;1750578;81;21153;-60
2021/09/16 04:10:59;;;;;;;46.50;17.23;;;;;;;9.50;58.18;100993.95;1748369;81;21152;-61
2021/09/16 04:13:33;;;;;;;47.80;20.80;;;;;;;10.67;55.77;100995.16;1747972;81;21148;-60
2021/09/16 04:16:08;;;;;;;39.60;16.82;;;;;;;11.74;53.11;100997.95;1736379;81;21734;-60
2021/09/16 04:18:49;;;;;;;33.70;13.35;;;;;;;12.71;50.70;100995.80;1745582;81;21276;-62
2021/09/16 04:21:22;;;;;;;27.32;11.00;;;;;;;13.57;48.68;100989.49;1771257;81;21264;-62
2021/09/16 04:23:57;;;;;;;27.20;12.18;;;;;;;14.39;46.63;100985.44;1771572;81;21295;-60
2021/09/16 04:26:32;;;;;;;;;;;;;;;15.23;44.61;100991.47;1774094;80;21181;-60
2021/09/16 04:29:05;;;;;;;33.60;13.55;;;;;;;15.99;42.79;100982.16;1756141;81;20232;-60
2021/09/16 04:31:44;;;;;;;47.00;18.20;;;;;;;16.64;41.06;100981.64;1735733;82;22523;-61
2021/09/16 04:34:21;;;;;;;36.55;17.57;;;;;;;17.26;39.57;100986.17;1740882;81;21188;-60
2021/09/16 04:37:03;;;;;;;37.05;17.65;;;;;;;17.83;38.29;100983.98;1746135;82;21303;-61
2021/09/16 04:39:39;;;;;;;33.53;15.45;;;;;;;18.38;37.17;100979.30;1739180;81;21340;-61
2021/09/16 04:42:13;;;;;;;35.75;13.70;;;;;;;18.95;36.05;100979.97;1735398;81;21304;-61
2021/09/16 04:44:48;;;;;;;26.05;12.43;;;;;;;19.32;35.08;100984.12;1743263;81;21307;-61
2021/09/16 04:47:23;;;;;;;31.62;12.58;;;;;;;19.46;34.65;100978.89;1745714;81;21267;-62
2021/09/16 04:50:02;;;;;;;25.35;9.43;;;;;;;19.74;34.22;100985.85;1737631;81;21303;-62
2021/09/16 04:52:36;;;;;;;19.15;8.23;;;;;;;20.18;33.58;100981.47;1734841;82;21254;-63
2021/09/16 04:55:10;;;;;;;23.18;8.08;;;;;;;20.73;32.61;100977.59;1751338;81;21259;-64
2021/09/16 04:57:44;;;;;;;17.92;7.65;;;;;;;22.03;31.15;100967.62;1741272;81;21232;-64
2021/09/16 05:00:17;;;;;;;15.72;7.58;;;;;;;22.03;31.15;100967.62;1758485;81;21255;-63
2021/09/16 05:02:54;;;;;;;26.27;9.10;;;;;;;22.27;30.13;100976.20;1751207;81;21807;-63
2021/09/16 05:05:32;;;;;;;20.57;8.85;;;;;;;22.27;30.23;100982.87;1772447;79;21400;-63
2021/09/16 05:08:05;;;;;;;18.00;7.92;;;;;;;22.21;29.76;100980.45;1762753;79;21173;-64
2021/09/16 05:10:39;;;;;;;20.60;8.13;;;;;;;22.04;30.03;100987.91;1752695;79;21504;-66
2021/09/16 05:13:13;;;;;;;19.35;6.55;;;;;;;21.67;30.26;100991.34;1767375;79;21208;-65
2021/09/16 05:15:54;;;;;;;11.57;5.90;;;;;;;21.23;30.77;100991.50;1745098;79;21214;-64
2021/09/16 05:18:28;;;;;;;15.63;7.72;;;;;;;20.75;31.34;100993.70;1764578;79;21299;-66
2021/09/16 05:21:03;;;;;;;17.90;8.28;;;;;;;20.39;31.79;100990.63;1769622;79;21280;-63
2021/09/16 05:23:36;;;;;;;;;;;;;;;20.28;32.23;100995.04;1771880;79;21213;-64
2021/09/16 05:26:11;;;;;;;26.82;12.98;;;;;;;20.37;32.28;100995.31;1768367;79;20221;-62
2021/09/16 05:28:46;;;;;;;37.23;15.78;;;;;;;20.73;31.98;100997.55;1766496;79;21134;-64
2021/09/16 05:31:23;;;;;;;38.20;17.70;;;;;;;21.39;31.12;101000.09;1765008;79;21284;-64
2021/09/16 05:33:58;;;;;;;43.38;19.45;;;;;;;21.71;30.37;100998.77;1758914;81;21173;-66
2021/09/16 05:36:33;;;;;;;42.17;21.40;;;;;;;21.69;30.19;100999.96;1760416;79;21181;-66
2021/09/16 05:39:07;;;;;;;47.13;22.10;;;;;;;21.61;30.33;101006.77;1761674;81;21217;-64
2021/09/16 05:41:40;;;;;;;49.88;21.33;;;;;;;21.64;30.43;101005.86;1763436;79;21312;-65
2021/09/16 05:44:16;;;;;;;38.50;19.60;;;;;;;21.90;30.28;101011.48;1767916;79;21310;-66
2021/09/16 05:46:50;;;;;;;38.98;18.90;;;;;;;22.14;29.94;101010.25;1764269;79;21303;-65
2021/09/16 05:49:24;;;;;;;39.27;19.50;;;;;;;22.54;29.59;101011.39;1765314;79;21292;-65
2021/09/16 05:51:59;;;;;;;35.73;18.65;;;;;;;22.98;28.96;101012.38;1764838;79;21331;-64
2021/09/16 05:54:32;;;;;;;34.75;17.95;;;;;;;23.10;28.74;101011.62;1763246;79;21338;-67
2021/09/16 05:57:06;;;;;;;35.98;16.05;;;;;;;23.46;28.42;101012.70;1762702;79;21196;-67
2021/09/16 05:59:43;;;;;;;26.40;12.55;;;;;;;24.13;27.50;101009.95;1764998;81;21205;-66
2021/09/16 06:02:15;;;;;;;23.30;11.25;;;;;;;24.58;26.61;101009.08;1761372;79;21280;-63
2021/09/16 06:04:50;;;;;;;18.27;8.18;;;;;;;24.92;26.24;101016.03;1762164;79;21181;-67
2021/09/16 06:07:30;;;;;;;20.37;7.70;;;;;;;25.33;25.42;101017.83;1762030;79;21510;-62
2021/09/16 06:10:04;;;;;;;13.28;6.15;;;;;;;25.83;24.87;101013.44;1759831;81;21268;-64
2021/09/16 06:12:41;;;;;;;13.98;6.42;;;;;;;26.51;23.86;101010.28;1760950;81;21138;-66
2021/09/16 06:15:15;;;;;;;14.43;5.35;;;;;;;27.20;23.07;101005.91;1765670;79;21268;-67
2021/09/16 06:17:49;;;;;;;11.63;5.12;;;;;;;28.12;22.08;101007.30;1766011;79;21701;-68
2021/09/16 06:20:25;;;;;;;20.12;5.60;;;;;;;28.83;21.32;101015.14;1775468;79;21219;-66
2021/09/16 06:22:59;;;;;;;9.88;5.12;;;;;;;29.26;20.92;101015.53;1773796;80;21185;-69
2021/09/16 06:25:38;;;;;;;14.03;5.47;;;;;;;29.66;20.38;101017.36;1776497;79;21848;-68
2021/09/16 06:28:12;;;;;;;8.90;5.33;;;;;;;30.10;19.62;101011.64;1769795;79;21178;-69
2021/09/16 06:30:46;;;;;;;9.63;5.17;;;;;;;30.69;19.18;101007.44;1737171;80;21739;-67
2021/09/16 06:33:27;;;;;;;14.40;6.12;;;;;;;31.40;18.57;101004.53;1735475;80;21299;-64
2021/09/16 06:36:01;;;;;;;18.62;5.95;;;;;;;31.95;17.86;101007.80;1725497;81;21807;-65
2021/09/16 06:38:35;;;;;;;18.23;8.45;;;;;;;32.36;17.43;101006.77;1716866;81;21311;-67
2021/09/16 06:41:08;;;;;;;17.92;11.20;;;;;;;32.68;17.35;101008.87;1720211;81;21281;-69
2021/09/16 06:43:42;;;;;;;14.55;8.00;;;;;;;32.92;17.05;101010.06;1735390;81;21750;-67
2021/09/16 06:46:15;;;;;;;12.95;6.55;;;;;;;32.84;17.03;101013.84;1724466;81;21326;-65
2021/09/16 06:48:51;;;;;;;13.68;5.85;;;;;;;32.49;17.06;101013.06;1725379;81;21294;-64
2021/09/16 06:51:32;;;;;;;16.05;7.37;;;;;;;32.05;17.38;101014.39;1741366;80;21300;-65
2021/09/16 06:54:12;;;;;;;19.60;12.93;;;;;;;31.73;17.54;101015.17;1718157;83;21170;-66
2021/09/16 06:56:45;;;;;;;12.00;6.95;;;;;;;31.58;17.68;101020.97;1705869;82;21294;-67
2021/09/16 06:59:20;;;;;;;10.40;5.37;;;;;;;31.91;17.51;101023.44;1721921;83;21277;-68
2021/09/16 07:01:55;;;;;;;15.50;6.80;;;;;;;32.50;16.73;101018.81;1720328;83;22195;-67
2021/09/16 07:04:29;;;;;;;15.03;8.33;;;;;;;33.10;16.17;101021.82;1730615;81;21347;-65
2021/09/16 07:07:07;;;;;;;25.05;14.33;;;;;;;33.62;15.89;101020.37;1713118;82;21348;-70
2021/09/16 07:09:40;;;;;;;19.48;12.43;;;;;;;34.14;15.25;101022.03;1688734;83;21152;-69
2021/09/16 07:12:16;;;;;;;14.28;8.05;;;;;;;34.51;14.82;101015.73;1717824;83;21311;-69
2021/09/16 07:14:50;;;;;;;16.82;6.00;;;;;;;34.90;14.68;101010.45;1714620;83;21161;-68
2021/09/16 07:17:24;;;;;;;14.78;6.62;;;;;;;35.50;13.92;101011.52;1716056;83;21307;-68
2021/09/16 07:19:59;;;;;;;15.85;5.90;;;;;;;36.11;13.34;101009.19;1720764;81;21337;-68
2021/09/16 07:22:33;;;;;;;14.33;5.90;;;;;;;36.75;12.84;101009.34;1729145;81;21878;-64
2021/09/16 07:25:09;;;;;;;13.58;6.45;;;;;;;37.24;12.39;101006.25;1724514;82;21180;-63
2021/09/16 07:27:47;;;;;;;15.05;6.08;;;;;;;37.79;11.91;100997.23;1754168;79;21150;-64
2021/09/16 07:30:19;;;;;;;9.68;4.25;;;;;;;38.20;11.40;101005.02;1761446;79;21847;-66
2021/09/16 07:32:52;;;;;;;8.08;4.08;;;;;;;38.39;11.38;101007.14;1724502;82;21315;-67
2021/09/16 07:35:26;;;;;;;13.50;4.28;;;;;;;38.70;11.21;100999.14;1761597;79;21263;-67
2021/09/16 07:38:02;;;;;;;10.10;3.60;;;;;;;39.02;11.11;100996.86;1757411;79;21276;-66
2021/09/16 07:40:38;;;;;;;9.73;3.00;;;;;;;39.13;10.47;100996.87;1760044;79;21296;-66
2021/09/16 07:43:11;;;;;;;12.18;2.92;;;;;;;39.02;10.65;100993.56;1724708;82;21176;-65
2021/09/16 07:45:45;;;;;;;9.65;3.27;;;;;;;39.03;10.77;100989.69;1756771;79;21134;-69
2021/09/16 07:48:19;;;;;;;4.45;2.10;;;;;;;39.19;10.47;100985.28;1725921;81;21306;-69
2021/09/16 07:50:52;;;;;;;6.90;2.62;;;;;;;39.38;10.45;100981.27;1765099;79;21447;-65
2021/09/16 07:53:32;;;;;;;8.15;2.37;;;;;;;39.62;10.38;100983.73;1725968;81;21279;-63
2021/09/16 07:56:01;;;;;;;7.20;2.95;;;;;;;39.87;10.00;100983.63;1719257;81;21323;-66
2021/09/16 07:58:35;;;;;;;3.17;1.87;;;;;;;40.08;10.05;100976.52;1725612;81;21295;-64
2021/09/16 08:01:12;;;;;;;7.83;1.90;;;;;;;40.37;9.81;100975.44;1722252;81;21342;-70
2021/09/16 08:03:46;;;;;;;3.95;2.60;;;;;;;40.73;9.52;100973.33;1757296;79;21177;-65
2021/09/16 08:06:20;;;;;;;2.92;1.90;;;;;;;41.03;9.52;100971.64;1723271;81;21223;-65
2021/09/16 08:08:55;;;;;;;6.08;1.60;;;;;;;41.23;9.26;100970.98;1765779;79;21304;-66
2021/09/16 08:11:29;;;;;;;4.10;1.80;;;;;;;41.27;9.15;100963.77;1756214;79;21424;-63
2021/09/16 08:14:04;;;;;;;3.12;1.67;;;;;;;41.38;9.11;100968.34;1762661;79;21173;-63
2021/09/16 08:16:37;;;;;;;4.40;1.80;;;;;;;41.49;8.98;100972.37;1763569;79;21319;-69
2021/09/16 08:19:11;;;;;;;5.03;2.12;;;;;;;41.46;8.94;100962.83;1762891;79;21268;-69
2021/09/16 08:21:46;;;;;;;4.25;2.02;;;;;;;41.51;8.94;100958.55;1759777;79;21131;-64
2021/09/16 08:24:24;;;;;;;3.98;2.00;;;;;;;41.48;8.86;100961.15;1726530;81;21256;-67
2021/09/16 08:26:57;;;;;;;9.03;2.20;;;;;;;41.39;8.87;100953.48;1760907;79;21276;-65
2021/09/16 08:29:31;;;;;;;4.92;2.20;;;;;;;41.10;9.00;100950.55;1762569;79;21272;-66
2021/09/16 08:32:05;;;;;;;3.92;2.05;;;;;;;40.86;9.02;100955.14;1763683;79;21649;-63
2021/09/16 08:34:40;;;;;;;5.12;2.05;;;;;;;40.58;9.24;100953.77;1720102;81;21859;-61
2021/09/16 08:37:15;;;;;;;3.27;2.08;;;;;;;40.63;9.23;100943.42;1761015;79;21295;-63
2021/09/16 08:39:48;;;;;;;2.52;1.82;;;;;;;40.66;9.30;100948.28;1763888;79;21815;-63
2021/09/16 08:42:26;;;;;;;12.20;2.10;;;;;;;40.61;9.18;100954.48;1762617;79;21299;-60
2021/09/16 08:45:01;;;;;;;4.97;1.95;;;;;;;40.44;9.20;100949.75;1723184;81;21830;-63
2021/09/16 08:47:37;;;;;;;3.50;1.65;;;;;;;40.23;9.36;100950.88;1760490;79;21347;-63
2021/09/16 08:50:14;;;;;;;2.62;1.47;;;;;;;40.10;9.38;100950.39;1764686;79;21185;-68
2021/09/16 08:52:48;;;;;;;2.22;1.55;;;;;;;39.99;9.38;100941.36;1765757;79;21279;-65
2021/09/16 08:55:23;;;;;;;4.17;1.40;;;;;;;39.89;9.16;100944.40;1764383;79;21342;-61
2021/09/16 08:57:59;;;;;;;6.47;1.57;;;;;;;39.68;9.37;100943.55;1759051;79;22138;-61
2021/09/16 09:00:33;;;;;;;6.97;2.70;;;;;;;39.47;9.56;100941.03;1761547;79;21732;-66
2021/09/16 09:03:09;;;;;;;5.87;1.70;;;;;;;39.29;9.81;100944.75;1762293;79;22781;-64
2021/09/16 09:05:44;;;;;;;4.05;1.75;;;;;;;39.02;9.93;100935.25;1757039;79;21234;-63
2021/09/16 09:08:26;;;;;;;2.65;1.60;;;;;;;38.74;10.22;100944.06;1763631;79;21287;-62
2021/09/16 09:11:05;;;;;;;4.90;1.52;;;;;;;38.55;9.94;100940.61;1756627;79;21308;-64
2021/09/16 09:13:42;;;;;;;3.15;1.40;;;;;;;38.18;10.23;100955.28;1760657;79;21327;-63
2021/09/16 09:16:13;;;;;;;5.83;1.55;;;;;;;37.85;10.24;100955.08;1757018;79;21284;-63
2021/09/16 09:18:50;;;;;;;5.53;2.10;;;;;;;37.63;10.59;100957.06;1759791;79;21681;-64
2021/09/16 09:21:26;;;;;;;5.12;2.45;;;;;;;37.38;10.65;100947.89;1770758;79;21270;-68
2021/09/16 09:23:59;;;;;;;6.00;1.85;;;;;;;37.09;10.97;100952.13;1753510;80;21181;-63
2021/09/16 09:26:34;;;;;;;10.15;1.90;;;;;;;36.71;11.13;100953.16;1774763;79;21328;-64
2021/09/16 09:29:17;;;;;;;2.45;1.12;;;;;;;36.25;11.48;100949.34;1775757;79;21311;-64
2021/09/16 09:32:03;;;;;;;5.25;1.65;;;;;;;35.80;11.66;100950.00;1767167;79;21177;-65
2021/09/16 09:34:40;;;;;;;2.55;1.25;;;;;;;35.29;12.00;100949.30;1772983;79;21319;-66
2021/09/16 09:37:19;;;;;;;2.83;1.20;;;;;;;34.58;12.30;100945.59;1772450;79;21240;-65
2021/09/16 09:40:00;;;;;;;17.85;2.98;;;;;;;34.03;12.65;100956.00;1778244;79;21224;-64
2021/09/16 09:42:37;;;;;;;2.77;1.27;;;;;;;33.31;13.21;100959.47;1780422;79;21263;-66
2021/09/16 09:45:11;;;;;;;3.05;1.27;;;;;;;32.63;13.72;100955.97;1772421;80;21255;-66
2021/09/16 09:47:48;;;;;;;6.65;1.70;;;;;;;32.03;13.89;100947.48;1770644;79;21284;-65
2021/09/16 09:50:27;;;;;;;2.83;1.50;;;;;;;31.25;14.97;100955.14;1779703;79;21252;-65
2021/09/16 09:53:15;;;;;;;5.37;1.77;;;;;;;30.67;15.52;100952.81;1776371;79;21280;-66
2021/09/16 09:55:53;;;;;;;6.15;1.27;;;;;;;29.96;15.93;100949.06;1772687;79;21350;-61
2021/09/16 09:58:38;;;;;;;5.97;1.50;;;;;;;29.32;16.58;100957.95;1777216;79;21298;-67
2021/09/16 10:01:36;;;;;;;4.20;1.52;;;;;;;28.88;16.95;100956.48;1770918;79;21248;-67
2021/09/16 10:04:27;;;;;;;5.10;1.85;;;;;;;28.42;17.16;100955.48;1776180;79;21307;-66
2021/09/16 10:07:01;;;;;;;4.58;1.50;;;;;;;27.91;17.52;100961.56;1773989;80;21200;-65
2021/09/16 10:09:34;;;;;;;7.28;3.15;;;;;;;27.27;18.08;100956.91;1777071;79;21293;-66
2021/09/16 10:12:07;;;;;;;9.55;2.67;;;;;;;26.69;18.84;100961.15;1770953;80;21320;-67
2021/09/16 10:14:42;;;;;;;6.65;1.60;;;;;;;26.30;19.39;100957.02;1771421;79;21189;-65
2021/09/16 10:17:20;;;;;;;6.33;1.75;;;;;;;25.92;19.76;100956.30;1779318;80;21662;-63
2021/09/16 10:19:54;;;;;;;2.90;1.50;;;;;;;25.59;20.32;100957.07;1715566;82;21156;-66
2021/09/16 10:22:30;;;;;;;12.88;3.33;;;;;;;25.34;20.61;100955.64;1726150;81;21151;-63
2021/09/16 10:25:07;;;;;;;5.08;2.05;;;;;;;25.04;20.90;100951.90;1757725;79;21767;-67
2021/09/16 10:27:45;;;;;;;9.78;2.00;;;;;;;24.82;21.15;100960.74;1753764;79;21643;-67
2021/09/16 10:30:29;;;;;;;6.08;1.95;;;;;;;24.59;21.32;100958.53;1763474;79;21184;-66
2021/09/16 10:33:21;;;;;;;6.00;2.10;;;;;;;24.36;21.57;100958.16;1765137;79;21102;-72
2021/09/16 10:36:07;;;;;;;2.05;1.20;;;;;;;24.16;21.91;100952.03;1755452;79;22478;-68
2021/09/16 10:38:49;;;;;;;4.20;1.50;;;;;;;23.95;22.08;100950.88;1755618;79;21181;-65
2021/09/16 10:41:30;;;;;;;7.08;1.62;;;;;;;23.59;21.93;100945.09;1756064;79;21264;-63
2021/09/16 10:44:21;;;;;;;10.63;2.12;;;;;;;23.59;21.93;100945.09;1757185;79;21363;-63
2021/09/16 10:47:00;;;;;;;2.25;1.30;;;;;;;23.37;22.83;100949.28;1758150;79;21752;-68
2021/09/16 10:49:31;;;;;;;11.25;3.83;;;;;;;23.21;23.10;100938.11;1759604;79;21239;-68
2021/09/16 10:52:18;;;;;;;4.28;1.80;;;;;;;23.10;23.78;100954.19;1745914;80;21849;-66
2021/09/16 10:54:54;;;;;;;12.35;2.20;;;;;;;23.00;23.36;100949.73;1759993;81;21189;-69
2021/09/16 10:57:38;;;;;;;11.63;3.75;;;;;;;22.88;23.79;100948.66;1761183;79;21925;-66
2021/09/16 11:00:17;;;;;;;4.05;1.95;;;;;;;22.82;23.92;100949.97;1760932;79;21287;-66
2021/09/16 11:02:55;;;;;;;5.85;1.80;;;;;;;22.78;24.07;100953.03;1760756;81;21291;-63
2021/09/16 11:05:46;;;;;;;;;;;;;;;22.74;24.16;100947.78;1766753;79;21315;-64
2021/09/16 11:08:21;;;;;;;7.20;1.55;;;;;;;22.67;24.30;100942.92;1766827;79;20276;-64
2021/09/16 11:10:57;;;;;;;5.50;1.90;;;;;;;22.56;24.63;100939.46;1754623;79;21217;-65
2021/09/16 11:13:39;;;;;;;9.93;2.00;;;;;;;22.47;24.82;100931.81;1761407;79;21288;-62
2021/09/16 11:16:22;;;;;;;2.58;1.37;;;;;;;22.37;25.16;100938.84;1761284;79;21185;-62
2021/09/16 11:19:02;;;;;;;9.38;1.62;;;;;;;22.26;24.80;100934.02;1753407;79;21667;-59
2021/09/16 11:21:35;;;;;;;26.73;2.08;;;;;;;22.17;25.10;100935.20;1757827;79;21347;-67
2021/09/16 11:24:11;;;;;;;8.08;1.32;;;;;;;22.10;25.18;100939.66;1767230;79;21232;-60
2021/09/16 11:26:46;;;;;;;7.10;1.57;;;;;;;22.03;25.39;100929.45;1769047;80;21326;-66
2021/09/16 11:29:20;;;;;;;3.75;1.20;;;;;;;21.97;25.43;100929.72;1772761;79;21369;-65
2021/09/16 11:32:04;;;;;;;3.08;1.40;;;;;;;21.90;24.99;100925.37;1771988;79;21268;-66
2021/09/16 11:34:37;;;;;;;4.33;1.55;;;;;;;21.84;25.18;100928.30;1765771;79;21394;-64
2021/09/16 11:37:18;;;;;;;;;;;;;;;21.82;25.69;100924.14;1766901;79;21110;-69
2021/09/16 11:40:01;;;;;;;11.65;5.03;;;;;;;21.80;25.72;100927.01;1764119;79;20288;-72
2021/09/16 11:42:36;;;;;;;9.85;4.58;;;;;;;21.76;26.29;100924.39;1729266;82;21298;-68
2021/09/16 11:45:17;;;;;;;9.70;5.25;;;;;;;21.77;26.25;100922.55;1727624;81;21303;-69
2021/09/16 11:48:20;;;;;;;3.40;2.22;;;;;;;21.76;26.26;100913.73;1703947;83;21946;-63
2021/09/16 11:51:05;;;;;;;4.78;1.87;;;;;;;21.74;25.81;100913.60;1706797;82;21292;-62
2021/09/16 11:53:40;;;;;;;3.30;1.47;;;;;;;21.69;26.29;100916.84;1727450;81;21263;-66
2021/09/16 11:56:12;;;;;;;;;;;;;;;21.70;26.13;100913.69;1728733;81;21585;-67
2021/09/16 11:58:46;;;;;;;5.58;1.90;;;;;;;21.69;26.07;100916.84;1697996;82;20458;-65
2021/09/16 12:01:19;;;;;;;;;;;;;;;21.64;26.56;100920.59;1706807;83;21370;-62
2021/09/16 12:03:57;;;;;;;4.78;1.50;;;;;;;21.62;26.39;100916.47;1704389;82;20308;-61